Alapuzha, India

2:18 PM IST on November 22, 2014 (GMT +0530)
Cochin International | Change Station
CLOSE
Current Station
Airport
Location: COCHIN INTL,
Elevation: 26 ft
Nearby Weather Stations

Elev 26 ft 10.15 °N, 76.40 °E | Updated 18 minutes ago

Haze
Haze
88 °F
Feels Like 98 °F
N
7
Wind Variable Wind from WSW

Today
High -- | Low -- °F
--% Chance of Precip.
Yesterday
High -- | Low -- °F
Precip. -- in
6:20 AM 5:59 PM
Waning Crescent, 0% visible
Pressure 29.80 in
Visibility 2.8 miles
Clouds Few 1500 ft
Scattered Clouds 2000 ft
Mostly Cloudy 8000 ft
Heat Index 98 °F
Dew Point 75 °F
Humidity 66%
Rainfall 0.00 in
Snow Depth Not available.
UV 5 out of 12
Pollen Not available.
Air Quality Not available.
Flu Activity Not available.
METAR VOCI 220830Z 24006KT 4500 HZ FEW015 SCT020 BKN080 31/24 Q1009 NOSIG

More Conditions Fewer Conditions

Pressure 29.80 in
Visibility 2.8 miles
Clouds Few 1500 ft
Scattered Clouds 2000 ft
Mostly Cloudy 8000 ft
Heat Index 98 °F
Dew Point 75 °F
Humidity 66%
Rainfall 0.00 in
Snow Depth Not available.
UV 5 out of 12
Pollen Not available.
Air Quality Not available.
Flu Activity Not available.
METAR VOCI 220830Z 24006KT 4500 HZ FEW015 SCT020 BKN080 31/24 Q1009 NOSIG

More Conditions Fewer Conditions

10-Day Weather Forecast

Almanac

Astronomy

Nov. 22, 2014 Rise Set
Actual Time
Civil Twilight
Nautical Twilight
Astronomical Twilight
Moon
Length of Visible Light
Length of Day
Tomorrow will be .
, % of the Moon is Illuminated

Today's Extremes

Country Highs Country Lows

Community

WunderPhotos

Upload Photos

1,772,794 photos uploaded!

WunderBlogs® & News

Nearby

Air Quality

  Air Quality AQ Index Pollutant
Not available.

Snow Depth

Station Depth Elevation

Earthquake Activity

City Distance Mag. Time & Date
Minimum magnitude displayed is 2.5.

Coastal Water Temperatures

Place Temperature

Nearby Weather Stations